»·PEaware :: UAL759 KLAS-KSAN

UAL759 :: KLAS-KSAN

FLIGHT INFORMATION

Flight Status: Arrived
Operator:
United Airlines
More flights by this operator :: More flights under this callsign
Pilot: Diego M. (28112)
Aircraft: AIRBUS A319
(A319)
More flights by this aircraft type
Origin: KLAS McCarran Intl
United States
Destination: KSAN San Diego Intl-Lindbergh
United States
More flights between these airports :: More routes between these airports
Route: BOACH8 LVELL LUCKI1
File this flight plan on PilotEdge
Remarks:
Altitude:
(Current/Filed)
280ft
Speed:
(Current/Filed)
400kts
Departed: 21-May-20 11:02 AM
Arrived: 21-May-20 11:47 AM
Distance/Time
Traveled:
225nm/0:45
Distance/Time
To Go:
Arrived

Flight Plot

Page will automatically refresh every two minutes.


Map Options




Map Legend


Flown Route
Filed Route
Departure Airport
Arrival Airport
Navaid (VOR, NDB)
Fix

Horizontal Profiles

Position Reports

Time Latitude Longitude Heading Altitude Ground
Speed
21-May-20 10:22 36.079936 -115.135293 352 2065ft 0kts
21-May-20 10:23 36.079936 -115.135293 352 2065ft 0kts
21-May-20 10:24 36.079936 -115.135293 352 2065ft 0kts
21-May-20 10:25 36.079936 -115.135293 352 2065ft 0kts
21-May-20 10:25 36.079936 -115.135293 352 2065ft 0kts
21-May-20 10:27 36.079936 -115.135293 352 2065ft 0kts
21-May-20 10:27 36.079936 -115.135293 352 2065ft 0kts
21-May-20 10:29 36.079936 -115.135293 352 2065ft 0kts
21-May-20 10:30 36.079936 -115.135293 352 2065ft 0kts
21-May-20 10:30 36.079936 -115.135293 352 2065ft 0kts
21-May-20 10:32 36.079936 -115.135293 352 2065ft 0kts
21-May-20 10:32 36.079936 -115.135293 352 2065ft 0kts
21-May-20 10:33 36.079936 -115.135293 352 2065ft 0kts
21-May-20 10:34 36.079936 -115.135293 352 2065ft 0kts
21-May-20 10:35 36.079936 -115.135293 352 2065ft 0kts
21-May-20 10:36 36.079936 -115.135293 352 2065ft 0kts
21-May-20 10:37 36.079936 -115.135293 352 2065ft 0kts
21-May-20 10:38 36.079936 -115.135293 352 2065ft 0kts
21-May-20 10:39 36.079936 -115.135293 352 2065ft 0kts
21-May-20 10:40 36.079936 -115.135293 352 2065ft 0kts
21-May-20 10:41 36.079936 -115.135293 352 2065ft 0kts
21-May-20 10:42 36.079936 -115.135293 352 2065ft 0kts
21-May-20 10:43 36.079933 -115.135280 343 2065ft 1kts
21-May-20 10:44 36.079606 -115.135247 352 2066ft 2kts
21-May-20 10:45 36.079192 -115.134887 289 2065ft 2kts
21-May-20 10:46 36.079302 -115.134298 222 2063ft 1kts
21-May-20 10:47 36.079321 -115.134276 224 2063ft 0kts
21-May-20 10:48 36.079321 -115.134276 224 2063ft 0kts
21-May-20 10:49 36.078999 -115.134665 225 2065ft 4kts
21-May-20 10:50 36.078275 -115.137355 269 2074ft 12kts
21-May-20 10:51 36.078270 -115.141535 270 2086ft 13kts
21-May-20 10:52 36.078526 -115.147288 273 2104ft 18kts
21-May-20 10:53 36.078776 -115.152834 274 2124ft 14kts
21-May-20 10:54 36.082616 -115.155545 335 2125ft 19kts
21-May-20 10:55 36.087244 -115.157793 18 2122ft 17kts
21-May-20 10:56 36.092843 -115.154615 24 2098ft 22kts
21-May-20 10:57 36.097947 -115.152369 290 2079ft 0kts
21-May-20 10:58 36.097947 -115.152369 290 2079ft 0kts
21-May-20 10:59 36.097947 -115.152369 290 2079ft 0kts
21-May-20 11:00 36.097412 -115.154228 206 2085ft 18kts
21-May-20 11:01 36.064066 -115.173104 207 3103ft 183kts
21-May-20 11:02 36.015091 -115.204249 227 5343ft 233kts
21-May-20 11:03 35.979195 -115.282953 236 7087ft 289kts
21-May-20 11:04 35.903844 -115.310087 185 10584ft 304kts
21-May-20 11:05 35.814337 -115.310316 174 13343ft 334kts
21-May-20 11:06 35.719470 -115.299370 176 16038ft 353kts
21-May-20 11:07 35.619455 -115.296910 184 18422ft 369kts
21-May-20 11:08 35.516100 -115.301090 185 20616ft 382kts
21-May-20 11:09 35.409309 -115.305244 186 22616ft 394kts
21-May-20 11:10 35.298417 -115.309622 186 24405ft 406kts
21-May-20 11:11 35.184281 -115.314110 187 26021ft 418kts
21-May-20 11:12 35.066557 -115.318754 188 27541ft 428kts
21-May-20 11:13 34.946557 -115.323564 187 27984ft 436kts
21-May-20 11:14 34.825347 -115.328203 186 27986ft 439kts
21-May-20 11:15 34.708931 -115.361821 206 27989ft 430kts
21-May-20 11:16 34.596594 -115.411487 206 28019ft 430kts
21-May-20 11:17 34.484300 -115.460524 206 28084ft 430kts
21-May-20 11:18 34.373137 -115.508934 206 28105ft 430kts
21-May-20 11:19 34.267358 -115.572402 218 28108ft 424kts
21-May-20 11:20 34.163133 -115.637296 207 28107ft 430kts
21-May-20 11:21 34.054697 -115.688564 207 28107ft 429kts
21-May-20 11:22 33.943542 -115.740938 207 28041ft 429kts
21-May-20 11:23 33.839914 -115.791156 208 27957ft 429kts
21-May-20 11:24 33.729255 -115.844673 207 27875ft 425kts
21-May-20 11:26 33.603281 -115.903451 205 24723ft 407kts
21-May-20 11:27 33.504848 -115.963130 231 23022ft 387kts
21-May-20 11:28 33.444456 -116.066132 239 21359ft 376kts
21-May-20 11:29 33.385417 -116.168013 238 19713ft 370kts
21-May-20 11:30 33.319840 -116.260773 212 18002ft 371kts
21-May-20 11:31 33.228691 -116.314033 205 16292ft 365kts
21-May-20 11:32 33.138984 -116.366334 205 14558ft 356kts
21-May-20 11:33 33.052751 -116.416600 206 12888ft 340kts
21-May-20 11:34 32.974672 -116.475123 221 11376ft 326kts
21-May-20 11:35 32.907065 -116.543627 221 9984ft 312kts
21-May-20 11:36 32.844844 -116.606034 221 9160ft 284kts
21-May-20 11:37 32.785360 -116.666102 223 7876ft 278kts
21-May-20 11:38 32.743230 -116.742576 241 6315ft 279kts
21-May-20 11:39 32.708825 -116.815988 244 5962ft 232kts
21-May-20 11:40 32.685906 -116.887491 250 4825ft 228kts
21-May-20 11:41 32.677150 -116.959462 287 3714ft 222kts
21-May-20 11:42 32.693917 -117.026601 286 2834ft 197kts
21-May-20 11:43 32.708080 -117.084539 286 1979ft 167kts
21-May-20 11:44 32.719506 -117.131477 287 1035ft 134kts
21-May-20 11:45 32.729676 -117.173830 287 156ft 132kts
21-May-20 11:46 32.735195 -117.198029 249 22ft 20kts
21-May-20 11:47 32.734938 -117.198844 250 21ft 0kts
21-May-20 11:48 32.734938 -117.198844 250 21ft 0kts
21-May-20 11:49 32.734243 -117.199384 145 21ft 10kts
21-May-20 11:50 32.733681 -117.198937 146 21ft 0kts
21-May-20 11:51 32.733681 -117.198937 146 21ft 0kts

Navigation Log

Ident Type
Flight plan parsing failed, navigation log unavailable